sensor_id;sensor_type;location;lat;lon;timestamp;temperature;humidity
51175;DHT22;37240;50.104;20.010;2023-04-22T00:04:21;13.30;74.10
51175;DHT22;37240;50.104;20.010;2023-04-22T00:09:22;13.20;71.70
51175;DHT22;37240;50.104;20.010;2023-04-22T00:14:22;13.30;70.70
51175;DHT22;37240;50.104;20.010;2023-04-22T00:19:23;13.20;73.00
51175;DHT22;37240;50.104;20.010;2023-04-22T00:24:24;13.10;76.00
51175;DHT22;37240;50.104;20.010;2023-04-22T00:29:25;12.90;76.60
51175;DHT22;37240;50.104;20.010;2023-04-22T00:34:25;12.90;75.80
51175;DHT22;37240;50.104;20.010;2023-04-22T00:39:26;12.90;74.90
51175;DHT22;37240;50.104;20.010;2023-04-22T00:44:27;12.80;77.00
51175;DHT22;37240;50.104;20.010;2023-04-22T00:49:28;12.70;78.60
51175;DHT22;37240;50.104;20.010;2023-04-22T00:54:30;12.60;80.00
51175;DHT22;37240;50.104;20.010;2023-04-22T00:59:31;12.50;80.10
51175;DHT22;37240;50.104;20.010;2023-04-22T01:04:32;12.50;80.40
51175;DHT22;37240;50.104;20.010;2023-04-22T01:09:33;12.30;79.70
51175;DHT22;37240;50.104;20.010;2023-04-22T01:14:34;12.30;80.70
51175;DHT22;37240;50.104;20.010;2023-04-22T01:19:34;12.10;83.10
51175;DHT22;37240;50.104;20.010;2023-04-22T01:24:35;12.10;85.40
51175;DHT22;37240;50.104;20.010;2023-04-22T01:29:39;11.90;84.20
51175;DHT22;37240;50.104;20.010;2023-04-22T01:34:39;12.00;82.60
51175;DHT22;37240;50.104;20.010;2023-04-22T01:39:40;11.90;84.60
51175;DHT22;37240;50.104;20.010;2023-04-22T01:44:40;11.90;86.20
51175;DHT22;37240;50.104;20.010;2023-04-22T01:49:41;11.80;87.60
51175;DHT22;37240;50.104;20.010;2023-04-22T01:54:41;11.80;85.70
51175;DHT22;37240;50.104;20.010;2023-04-22T01:59:42;11.70;85.50
51175;DHT22;37240;50.104;20.010;2023-04-22T02:04:42;11.70;87.30
51175;DHT22;37240;50.104;20.010;2023-04-22T02:09:43;11.70;87.80
51175;DHT22;37240;50.104;20.010;2023-04-22T02:14:44;11.60;88.10
51175;DHT22;37240;50.104;20.010;2023-04-22T02:19:44;11.50;88.60
51175;DHT22;37240;50.104;20.010;2023-04-22T02:24:45;11.30;90.10
51175;DHT22;37240;50.104;20.010;2023-04-22T02:29:46;11.10;90.70
51175;DHT22;37240;50.104;20.010;2023-04-22T02:34:47;11.00;91.30
51175;DHT22;37240;50.104;20.010;2023-04-22T02:39:48;11.00;91.40
51175;DHT22;37240;50.104;20.010;2023-04-22T02:44:48;10.90;91.90
51175;DHT22;37240;50.104;20.010;2023-04-22T02:49:49;10.80;92.50
51175;DHT22;37240;50.104;20.010;2023-04-22T02:54:50;10.90;92.30
51175;DHT22;37240;50.104;20.010;2023-04-22T02:59:50;10.80;92.50
51175;DHT22;37240;50.104;20.010;2023-04-22T03:04:51;10.70;92.60
51175;DHT22;37240;50.104;20.010;2023-04-22T03:09:51;10.60;92.80
51175;DHT22;37240;50.104;20.010;2023-04-22T03:14:52;10.50;93.30
51175;DHT22;37240;50.104;20.010;2023-04-22T03:19:52;10.50;93.20
51175;DHT22;37240;50.104;20.010;2023-04-22T03:24:53;10.50;93.20
51175;DHT22;37240;50.104;20.010;2023-04-22T03:29:53;10.60;93.00
51175;DHT22;37240;50.104;20.010;2023-04-22T03:34:54;10.60;92.40
51175;DHT22;37240;50.104;20.010;2023-04-22T03:39:55;10.60;92.30
51175;DHT22;37240;50.104;20.010;2023-04-22T03:44:55;10.60;92.60
51175;DHT22;37240;50.104;20.010;2023-04-22T03:49:56;10.60;92.90
51175;DHT22;37240;50.104;20.010;2023-04-22T03:54:56;10.70;92.70
51175;DHT22;37240;50.104;20.010;2023-04-22T03:59:57;10.90;92.80
51175;DHT22;37240;50.104;20.010;2023-04-22T04:05:05;11.10;92.10
51175;DHT22;37240;50.104;20.010;2023-04-22T04:10:06;11.30;91.70
51175;DHT22;37240;50.104;20.010;2023-04-22T04:15:07;11.50;91.10
51175;DHT22;37240;50.104;20.010;2023-04-22T04:20:08;11.70;90.40
51175;DHT22;37240;50.104;20.010;2023-04-22T04:25:09;11.90;89.80
51175;DHT22;37240;50.104;20.010;2023-04-22T04:30:09;12.40;88.50
51175;DHT22;37240;50.104;20.010;2023-04-22T04:35:10;13.00;84.60
51175;DHT22;37240;50.104;20.010;2023-04-22T04:40:11;13.40;82.10
51175;DHT22;37240;50.104;20.010;2023-04-22T04:45:11;14.00;80.20
51175;DHT22;37240;50.104;20.010;2023-04-22T04:50:12;15.10;74.50
51175;DHT22;37240;50.104;20.010;2023-04-22T04:55:13;15.90;69.90
51175;DHT22;37240;50.104;20.010;2023-04-22T05:00:13;16.30;66.50
51175;DHT22;37240;50.104;20.010;2023-04-22T05:05:14;16.60;64.60
51175;DHT22;37240;50.104;20.010;2023-04-22T05:10:15;17.00;62.60
51175;DHT22;37240;50.104;20.010;2023-04-22T05:15:15;18.00;59.50
51175;DHT22;37240;50.104;20.010;2023-04-22T05:20:16;18.70;55.90
51175;DHT22;37240;50.104;20.010;2023-04-22T05:25:16;19.70;53.60
51175;DHT22;37240;50.104;20.010;2023-04-22T05:30:17;20.60;51.30
51175;DHT22;37240;50.104;20.010;2023-04-22T05:35:17;21.60;48.20
51175;DHT22;37240;50.104;20.010;2023-04-22T05:40:18;22.30;46.00
51175;DHT22;37240;50.104;20.010;2023-04-22T05:45:18;22.90;44.50
51175;DHT22;37240;50.104;20.010;2023-04-22T05:50:19;23.30;44.10
51175;DHT22;37240;50.104;20.010;2023-04-22T05:55:20;23.30;43.90
51175;DHT22;37240;50.104;20.010;2023-04-22T06:00:20;23.20;43.30
51175;DHT22;37240;50.104;20.010;2023-04-22T06:05:21;23.10;43.90
51175;DHT22;37240;50.104;20.010;2023-04-22T06:10:21;22.90;43.40
51175;DHT22;37240;50.104;20.010;2023-04-22T06:15:22;23.00;44.60
51175;DHT22;37240;50.104;20.010;2023-04-22T06:20:22;23.10;42.90
51175;DHT22;37240;50.104;20.010;2023-04-22T06:25:23;23.10;43.20
51175;DHT22;37240;50.104;20.010;2023-04-22T06:30:24;23.00;43.30
51175;DHT22;37240;50.104;20.010;2023-04-22T06:35:25;23.20;43.70
51175;DHT22;37240;50.104;20.010;2023-04-22T06:40:26;23.30;43.30
51175;DHT22;37240;50.104;20.010;2023-04-22T06:45:26;23.40;43.60
51175;DHT22;37240;50.104;20.010;2023-04-22T06:50:27;23.50;43.60
51175;DHT22;37240;50.104;20.010;2023-04-22T06:55:27;23.60;41.90
51175;DHT22;37240;50.104;20.010;2023-04-22T07:00:28;23.80;41.30
51175;DHT22;37240;50.104;20.010;2023-04-22T07:05:29;23.90;42.20
51175;DHT22;37240;50.104;20.010;2023-04-22T07:10:29;24.20;41.60
51175;DHT22;37240;50.104;20.010;2023-04-22T07:15:30;24.50;41.10
51175;DHT22;37240;50.104;20.010;2023-04-22T07:20:30;25.00;40.00
51175;DHT22;37240;50.104;20.010;2023-04-22T07:25:31;25.30;39.70
51175;DHT22;37240;50.104;20.010;2023-04-22T07:30:31;25.80;39.50
51175;DHT22;37240;50.104;20.010;2023-04-22T07:35:32;26.20;38.80
51175;DHT22;37240;50.104;20.010;2023-04-22T07:40:32;26.30;37.10
51175;DHT22;37240;50.104;20.010;2023-04-22T07:45:33;26.60;38.90
51175;DHT22;37240;50.104;20.010;2023-04-22T07:50:34;26.80;36.60
51175;DHT22;37240;50.104;20.010;2023-04-22T07:55:34;26.90;36.40
51175;DHT22;37240;50.104;20.010;2023-04-22T08:00:35;27.00;36.80
51175;DHT22;37240;50.104;20.010;2023-04-22T08:05:35;27.10;36.90
51175;DHT22;37240;50.104;20.010;2023-04-22T08:10:36;27.20;35.80
51175;DHT22;37240;50.104;20.010;2023-04-22T08:15:36;27.10;35.60
51175;DHT22;37240;50.104;20.010;2023-04-22T08:20:37;27.00;35.10
51175;DHT22;37240;50.104;20.010;2023-04-22T08:25:38;26.80;33.70
51175;DHT22;37240;50.104;20.010;2023-04-22T08:30:38;26.50;34.90
51175;DHT22;37240;50.104;20.010;2023-04-22T08:35:39;26.30;36.90
51175;DHT22;37240;50.104;20.010;2023-04-22T08:40:40;26.30;34.00
51175;DHT22;37240;50.104;20.010;2023-04-22T08:45:42;25.90;35.10
51175;DHT22;37240;50.104;20.010;2023-04-22T08:50:46;25.70;34.40
51175;DHT22;37240;50.104;20.010;2023-04-22T08:55:48;25.50;33.90
51175;DHT22;37240;50.104;20.010;2023-04-22T09:00:49;25.70;34.80
51175;DHT22;37240;50.104;20.010;2023-04-22T09:05:50;25.50;33.60
51175;DHT22;37240;50.104;20.010;2023-04-22T09:10:51;25.50;33.60
51175;DHT22;37240;50.104;20.010;2023-04-22T09:15:51;25.40;31.10
51175;DHT22;37240;50.104;20.010;2023-04-22T09:20:54;25.10;30.90
51175;DHT22;37240;50.104;20.010;2023-04-22T09:25:56;25.10;31.30
51175;DHT22;37240;50.104;20.010;2023-04-22T09:30:59;24.90;31.20
51175;DHT22;37240;50.104;20.010;2023-04-22T09:36:08;24.50;32.20
51175;DHT22;37240;50.104;20.010;2023-04-22T09:41:09;24.00;31.90
51175;DHT22;37240;50.104;20.010;2023-04-22T09:46:09;23.90;32.40
51175;DHT22;37240;50.104;20.010;2023-04-22T09:51:14;23.70;32.40
51175;DHT22;37240;50.104;20.010;2023-04-22T09:56:15;23.70;32.10
51175;DHT22;37240;50.104;20.010;2023-04-22T10:01:16;23.60;32.30
51175;DHT22;37240;50.104;20.010;2023-04-22T10:06:16;23.40;32.10
51175;DHT22;37240;50.104;20.010;2023-04-22T10:11:17;23.40;32.00
51175;DHT22;37240;50.104;20.010;2023-04-22T10:16:20;23.10;32.50
51175;DHT22;37240;50.104;20.010;2023-04-22T10:21:23;22.90;32.20
51175;DHT22;37240;50.104;20.010;2023-04-22T10:26:50;22.70;33.10
51175;DHT22;37240;50.104;20.010;2023-04-22T10:32:05;22.50;33.40
51175;DHT22;37240;50.104;20.010;2023-04-22T10:37:09;22.30;34.30
51175;DHT22;37240;50.104;20.010;2023-04-22T10:42:11;22.20;34.40
51175;DHT22;37240;50.104;20.010;2023-04-22T10:47:30;22.20;35.10
51175;DHT22;37240;50.104;20.010;2023-04-22T10:52:31;22.10;34.00
51175;DHT22;37240;50.104;20.010;2023-04-22T10:57:43;21.90;34.70
51175;DHT22;37240;50.104;20.010;2023-04-22T11:02:44;21.90;34.80
51175;DHT22;37240;50.104;20.010;2023-04-22T11:07:46;22.00;35.40
51175;DHT22;37240;50.104;20.010;2023-04-22T11:12:48;21.80;35.50
51175;DHT22;37240;50.104;20.010;2023-04-22T11:17:53;21.90;36.50
51175;DHT22;37240;50.104;20.010;2023-04-22T11:22:55;21.70;36.40
51175;DHT22;37240;50.104;20.010;2023-04-22T11:27:56;21.70;37.10
51175;DHT22;37240;50.104;20.010;2023-04-22T11:32:58;21.60;37.00
51175;DHT22;37240;50.104;20.010;2023-04-22T11:38:01;21.60;37.70
51175;DHT22;37240;50.104;20.010;2023-04-22T11:43:04;21.80;37.70
51175;DHT22;37240;50.104;20.010;2023-04-22T11:48:06;21.80;38.40
51175;DHT22;37240;50.104;20.010;2023-04-22T11:53:19;21.80;38.50
51175;DHT22;37240;50.104;20.010;2023-04-22T11:58:24;21.80;38.10
51175;DHT22;37240;50.104;20.010;2023-04-22T12:03:27;21.60;38.40
51175;DHT22;37240;50.104;20.010;2023-04-22T12:08:37;21.60;39.70
51175;DHT22;37240;50.104;20.010;2023-04-22T12:18:51;21.40;39.00
51175;DHT22;37240;50.104;20.010;2023-04-22T12:23:54;21.40;39.80
51175;DHT22;37240;50.104;20.010;2023-04-22T12:28:56;21.30;38.90
51175;DHT22;37240;50.104;20.010;2023-04-22T12:33:57;21.30;38.80
51175;DHT22;37240;50.104;20.010;2023-04-22T12:38:57;21.30;39.30
51175;DHT22;37240;50.104;20.010;2023-04-22T12:43:58;21.20;38.60
51175;DHT22;37240;50.104;20.010;2023-04-22T12:48:58;21.20;39.10
51175;DHT22;37240;50.104;20.010;2023-04-22T12:53:59;21.30;38.60
51175;DHT22;37240;50.104;20.010;2023-04-22T12:59:00;21.20;37.70
51175;DHT22;37240;50.104;20.010;2023-04-22T13:04:00;21.20;38.00
51175;DHT22;37240;50.104;20.010;2023-04-22T13:09:01;21.30;38.40
51175;DHT22;37240;50.104;20.010;2023-04-22T13:14:02;21.30;37.60
51175;DHT22;37240;50.104;20.010;2023-04-22T13:19:03;21.40;38.10
51175;DHT22;37240;50.104;20.010;2023-04-22T13:24:03;21.40;37.90
51175;DHT22;37240;50.104;20.010;2023-04-22T13:29:04;21.40;37.10
51175;DHT22;37240;50.104;20.010;2023-04-22T13:34:05;21.30;37.50
51175;DHT22;37240;50.104;20.010;2023-04-22T13:39:05;21.20;37.30
51175;DHT22;37240;50.104;20.010;2023-04-22T13:44:06;21.20;37.20
51175;DHT22;37240;50.104;20.010;2023-04-22T13:49:07;21.20;37.30
51175;DHT22;37240;50.104;20.010;2023-04-22T13:54:07;21.10;36.70
51175;DHT22;37240;50.104;20.010;2023-04-22T13:59:08;21.20;37.40
51175;DHT22;37240;50.104;20.010;2023-04-22T14:04:09;21.30;37.30
51175;DHT22;37240;50.104;20.010;2023-04-22T14:09:09;21.20;37.20
51175;DHT22;37240;50.104;20.010;2023-04-22T14:14:10;21.20;37.20
51175;DHT22;37240;50.104;20.010;2023-04-22T14:19:10;21.30;37.10
51175;DHT22;37240;50.104;20.010;2023-04-22T14:24:11;21.20;36.80
51175;DHT22;37240;50.104;20.010;2023-04-22T14:29:11;21.10;37.40
51175;DHT22;37240;50.104;20.010;2023-04-22T14:34:12;21.10;37.00
51175;DHT22;37240;50.104;20.010;2023-04-22T14:39:12;21.10;37.50
51175;DHT22;37240;50.104;20.010;2023-04-22T14:44:13;21.10;37.10
51175;DHT22;37240;50.104;20.010;2023-04-22T14:49:14;21.20;37.30
51175;DHT22;37240;50.104;20.010;2023-04-22T14:54:14;21.10;37.60
51175;DHT22;37240;50.104;20.010;2023-04-22T14:59:15;21.10;37.60
51175;DHT22;37240;50.104;20.010;2023-04-22T15:04:16;21.20;37.70
51175;DHT22;37240;50.104;20.010;2023-04-22T15:09:16;21.10;37.40
51175;DHT22;37240;50.104;20.010;2023-04-22T15:14:17;21.00;37.50
51175;DHT22;37240;50.104;20.010;2023-04-22T15:19:17;21.00;37.60
51175;DHT22;37240;50.104;20.010;2023-04-22T15:24:18;21.00;38.00
51175;DHT22;37240;50.104;20.010;2023-04-22T15:29:19;21.00;38.50
51175;DHT22;37240;50.104;20.010;2023-04-22T15:34:20;20.90;37.70
51175;DHT22;37240;50.104;20.010;2023-04-22T15:39:22;20.90;37.80
51175;DHT22;37240;50.104;20.010;2023-04-22T15:44:23;20.90;38.50
51175;DHT22;37240;50.104;20.010;2023-04-22T15:49:23;20.90;38.80
51175;DHT22;37240;50.104;20.010;2023-04-22T15:54:24;20.80;38.90
51175;DHT22;37240;50.104;20.010;2023-04-22T15:59:25;20.70;38.20
51175;DHT22;37240;50.104;20.010;2023-04-22T16:04:25;20.80;38.10
51175;DHT22;37240;50.104;20.010;2023-04-22T16:09:26;20.70;38.00
51175;DHT22;37240;50.104;20.010;2023-04-22T16:14:26;20.70;39.20
51175;DHT22;37240;50.104;20.010;2023-04-22T16:19:27;20.70;39.10
51175;DHT22;37240;50.104;20.010;2023-04-22T16:24:27;20.70;39.60
51175;DHT22;37240;50.104;20.010;2023-04-22T16:29:28;20.60;39.10
51175;DHT22;37240;50.104;20.010;2023-04-22T16:34:28;20.50;39.70
51175;DHT22;37240;50.104;20.010;2023-04-22T16:39:29;20.50;39.90
51175;DHT22;37240;50.104;20.010;2023-04-22T16:44:29;20.50;39.80
51175;DHT22;37240;50.104;20.010;2023-04-22T16:49:30;20.40;39.70
51175;DHT22;37240;50.104;20.010;2023-04-22T16:54:30;20.30;40.30
51175;DHT22;37240;50.104;20.010;2023-04-22T16:59:31;20.20;41.20
51175;DHT22;37240;50.104;20.010;2023-04-22T17:04:31;20.30;42.10
51175;DHT22;37240;50.104;20.010;2023-04-22T17:09:32;20.30;42.10
51175;DHT22;37240;50.104;20.010;2023-04-22T17:14:33;20.10;42.30
51175;DHT22;37240;50.104;20.010;2023-04-22T17:19:33;20.00;42.60
51175;DHT22;37240;50.104;20.010;2023-04-22T17:24:34;20.00;43.30
51175;DHT22;37240;50.104;20.010;2023-04-22T17:29:35;19.90;43.40
51175;DHT22;37240;50.104;20.010;2023-04-22T17:34:35;19.70;43.70
51175;DHT22;37240;50.104;20.010;2023-04-22T17:39:36;19.60;44.30
51175;DHT22;37240;50.104;20.010;2023-04-22T17:44:36;19.40;44.40
51175;DHT22;37240;50.104;20.010;2023-04-22T17:49:37;19.40;44.90
51175;DHT22;37240;50.104;20.010;2023-04-22T17:54:37;19.40;45.10
51175;DHT22;37240;50.104;20.010;2023-04-22T17:59:38;19.20;45.00
51175;DHT22;37240;50.104;20.010;2023-04-22T18:04:38;19.10;45.70
51175;DHT22;37240;50.104;20.010;2023-04-22T18:09:39;19.00;46.70
51175;DHT22;37240;50.104;20.010;2023-04-22T18:14:39;19.00;45.60
51175;DHT22;37240;50.104;20.010;2023-04-22T18:19:40;18.90;45.60
51175;DHT22;37240;50.104;20.010;2023-04-22T18:24:40;18.90;45.80
51175;DHT22;37240;50.104;20.010;2023-04-22T18:29:41;18.80;46.00
51175;DHT22;37240;50.104;20.010;2023-04-22T18:34:42;18.70;46.10
51175;DHT22;37240;50.104;20.010;2023-04-22T18:39:42;18.50;46.60
51175;DHT22;37240;50.104;20.010;2023-04-22T18:44:43;18.50;46.80
51175;DHT22;37240;50.104;20.010;2023-04-22T18:49:43;18.50;47.20
51175;DHT22;37240;50.104;20.010;2023-04-22T18:54:44;18.40;47.50
51175;DHT22;37240;50.104;20.010;2023-04-22T18:59:44;18.20;47.50
51175;DHT22;37240;50.104;20.010;2023-04-22T19:04:45;18.10;47.80
51175;DHT22;37240;50.104;20.010;2023-04-22T19:09:45;18.20;47.60
51175;DHT22;37240;50.104;20.010;2023-04-22T19:14:46;18.20;47.70
51175;DHT22;37240;50.104;20.010;2023-04-22T19:19:46;18.10;47.90
51175;DHT22;37240;50.104;20.010;2023-04-22T19:24:47;18.00;47.70
51175;DHT22;37240;50.104;20.010;2023-04-22T19:29:47;17.90;47.90
51175;DHT22;37240;50.104;20.010;2023-04-22T19:34:48;17.90;47.80
51175;DHT22;37240;50.104;20.010;2023-04-22T19:39:49;17.90;47.90
51175;DHT22;37240;50.104;20.010;2023-04-22T19:44:49;17.80;47.80
51175;DHT22;37240;50.104;20.010;2023-04-22T19:49:50;17.70;48.10
51175;DHT22;37240;50.104;20.010;2023-04-22T19:54:51;17.60;48.20
51175;DHT22;37240;50.104;20.010;2023-04-22T19:59:53;17.60;48.30
51175;DHT22;37240;50.104;20.010;2023-04-22T20:04:54;17.50;47.90
51175;DHT22;37240;50.104;20.010;2023-04-22T20:09:55;17.40;47.80
51175;DHT22;37240;50.104;20.010;2023-04-22T20:14:57;17.30;48.10
51175;DHT22;37240;50.104;20.010;2023-04-22T20:19:57;17.20;48.20
51175;DHT22;37240;50.104;20.010;2023-04-22T20:25:03;17.20;47.70
51175;DHT22;37240;50.104;20.010;2023-04-22T20:30:06;17.10;47.80
51175;DHT22;37240;50.104;20.010;2023-04-22T20:35:08;17.10;47.80
51175;DHT22;37240;50.104;20.010;2023-04-22T20:40:10;17.10;48.00
51175;DHT22;37240;50.104;20.010;2023-04-22T20:45:11;17.10;48.20
51175;DHT22;37240;50.104;20.010;2023-04-22T20:50:12;16.90;48.40
51175;DHT22;37240;50.104;20.010;2023-04-22T20:55:13;16.90;48.20
51175;DHT22;37240;50.104;20.010;2023-04-22T21:00:13;16.80;48.20
51175;DHT22;37240;50.104;20.010;2023-04-22T21:05:14;16.70;48.80
51175;DHT22;37240;50.104;20.010;2023-04-22T21:10:15;16.70;48.60
51175;DHT22;37240;50.104;20.010;2023-04-22T21:15:16;16.60;48.20
51175;DHT22;37240;50.104;20.010;2023-04-22T21:20:18;16.60;48.20
51175;DHT22;37240;50.104;20.010;2023-04-22T21:25:20;16.50;48.40
51175;DHT22;37240;50.104;20.010;2023-04-22T21:30:21;16.50;48.60
51175;DHT22;37240;50.104;20.010;2023-04-22T21:35:22;16.40;48.90
51175;DHT22;37240;50.104;20.010;2023-04-22T21:40:22;16.30;49.20
51175;DHT22;37240;50.104;20.010;2023-04-22T21:45:23;16.30;49.50
51175;DHT22;37240;50.104;20.010;2023-04-22T21:50:24;16.20;49.60
51175;DHT22;37240;50.104;20.010;2023-04-22T21:55:25;16.10;50.00
51175;DHT22;37240;50.104;20.010;2023-04-22T22:00:25;16.10;50.30
51175;DHT22;37240;50.104;20.010;2023-04-22T22:05:26;16.00;50.60
51175;DHT22;37240;50.104;20.010;2023-04-22T22:10:26;16.00;51.20
51175;DHT22;37240;50.104;20.010;2023-04-22T22:15:27;15.90;51.90
51175;DHT22;37240;50.104;20.010;2023-04-22T22:20:28;15.80;52.30
51175;DHT22;37240;50.104;20.010;2023-04-22T22:25:28;15.80;52.60
51175;DHT22;37240;50.104;20.010;2023-04-22T22:30:29;15.60;53.10
51175;DHT22;37240;50.104;20.010;2023-04-22T22:35:29;15.60;53.30
51175;DHT22;37240;50.104;20.010;2023-04-22T22:40:30;15.50;53.60
51175;DHT22;37240;50.104;20.010;2023-04-22T22:45:30;15.50;54.10
51175;DHT22;37240;50.104;20.010;2023-04-22T22:50:31;15.40;54.30
51175;DHT22;37240;50.104;20.010;2023-04-22T22:55:32;15.30;54.60
51175;DHT22;37240;50.104;20.010;2023-04-22T23:00:32;15.30;54.90
51175;DHT22;37240;50.104;20.010;2023-04-22T23:05:33;15.20;55.10
51175;DHT22;37240;50.104;20.010;2023-04-22T23:10:33;15.10;55.50
51175;DHT22;37240;50.104;20.010;2023-04-22T23:15:34;15.10;55.90
51175;DHT22;37240;50.104;20.010;2023-04-22T23:20:35;15.00;56.10
51175;DHT22;37240;50.104;20.010;2023-04-22T23:25:36;15.00;56.30
51175;DHT22;37240;50.104;20.010;2023-04-22T23:30:37;15.00;56.70
51175;DHT22;37240;50.104;20.010;2023-04-22T23:35:40;14.90;57.10
51175;DHT22;37240;50.104;20.010;2023-04-22T23:40:40;14.80;57.30
51175;DHT22;37240;50.104;20.010;2023-04-22T23:45:41;14.80;57.80
51175;DHT22;37240;50.104;20.010;2023-04-22T23:50:41;14.60;58.20
51175;DHT22;37240;50.104;20.010;2023-04-22T23:55:42;14.60;58.50
